createdAt,value
2023-04-09T00:01:19.024Z,2.70
2023-04-09T00:03:46.989Z,2.70
2023-04-09T00:06:14.877Z,2.70
2023-04-09T00:08:44.040Z,2.50
2023-04-09T00:11:11.929Z,2.40
2023-04-09T00:13:40.155Z,2.30
2023-04-09T00:16:08.965Z,2.40
2023-04-09T00:18:37.173Z,2.50
2023-04-09T00:21:05.619Z,2.50
2023-04-09T00:23:33.436Z,2.50
2023-04-09T00:26:03.021Z,2.50
2023-04-09T00:28:30.810Z,2.50
2023-04-09T00:30:58.602Z,2.50
2023-04-09T00:33:27.216Z,2.60
2023-04-09T00:35:55.618Z,2.60
2023-04-09T00:38:23.494Z,2.60
2023-04-09T00:40:52.084Z,2.70
2023-04-09T00:43:21.534Z,2.80
2023-04-09T00:45:49.503Z,2.80
2023-04-09T00:48:18.377Z,2.80
2023-04-09T00:50:46.278Z,2.80
2023-04-09T00:53:16.856Z,2.80
2023-04-09T00:55:45.807Z,3.00
2023-04-09T00:58:14.439Z,3.00
2023-04-09T01:00:43.680Z,3.00
2023-04-09T01:03:11.718Z,3.00
2023-04-09T01:05:45.785Z,3.00
2023-04-09T01:08:27.685Z,3.00
2023-04-09T01:11:07.152Z,3.10
2023-04-09T01:13:43.624Z,3.20
2023-04-09T01:16:16.379Z,3.30
2023-04-09T01:18:50.370Z,3.40
2023-04-09T01:21:22.397Z,3.30
2023-04-09T01:23:59.112Z,3.30
2023-04-09T01:26:42.276Z,3.20
2023-04-09T01:29:12.141Z,3.10
2023-04-09T01:31:43.425Z,3.10
2023-04-09T01:34:12.557Z,3.00
2023-04-09T01:36:42.934Z,3.10
2023-04-09T01:39:11.145Z,3.10
2023-04-09T01:41:40.521Z,3.10
2023-04-09T01:44:10.446Z,3.10
2023-04-09T01:46:41.309Z,3.10
2023-04-09T01:49:10.881Z,3.10
2023-04-09T01:51:39.481Z,3.10
2023-04-09T01:54:07.318Z,3.10
2023-04-09T01:56:42.226Z,3.10
2023-04-09T01:59:10.056Z,3.10
2023-04-09T02:01:46.218Z,3.10
2023-04-09T02:04:20.909Z,3.10
2023-04-09T02:06:54.868Z,3.00
2023-04-09T02:09:24.174Z,2.90
2023-04-09T02:11:53.107Z,2.90
2023-04-09T02:14:23.213Z,3.10
2023-04-09T02:16:53.528Z,3.20
2023-04-09T02:19:21.344Z,3.00
2023-04-09T02:21:49.170Z,2.90
2023-04-09T02:24:16.965Z,2.80
2023-04-09T02:26:44.790Z,2.80
2023-04-09T02:29:12.573Z,2.80
2023-04-09T02:31:40.378Z,2.70
2023-04-09T02:34:09.508Z,2.70
2023-04-09T02:36:37.338Z,2.70
2023-04-09T02:39:05.385Z,2.80
2023-04-09T02:41:33.200Z,2.70
2023-04-09T02:44:00.987Z,2.60
2023-04-09T02:46:28.893Z,2.50
2023-04-09T02:48:56.944Z,2.50
2023-04-09T02:51:27.417Z,2.40
2023-04-09T02:53:55.341Z,2.30
2023-04-09T02:56:23.139Z,2.20
2023-04-09T02:58:54.097Z,2.10
2023-04-09T03:01:22.323Z,2.00
2023-04-09T03:03:51.402Z,2.10
2023-04-09T03:06:19.365Z,2.20
2023-04-09T03:08:48.470Z,2.20
2023-04-09T03:11:16.804Z,2.20
2023-04-09T03:13:44.680Z,2.20
2023-04-09T03:16:12.512Z,2.40
2023-04-09T03:18:40.309Z,2.30
2023-04-09T03:21:09.582Z,2.20
2023-04-09T03:23:37.464Z,2.00
2023-04-09T03:26:07.344Z,1.80
2023-04-09T03:28:35.144Z,1.70
2023-04-09T03:31:02.999Z,1.70
2023-04-09T03:33:30.886Z,1.70
2023-04-09T03:35:58.765Z,1.90
2023-04-09T03:38:26.569Z,1.80
2023-04-09T03:40:54.387Z,1.70
2023-04-09T03:43:23.711Z,1.50
2023-04-09T03:45:51.494Z,1.40
2023-04-09T03:48:19.264Z,1.30
2023-04-09T03:50:47.157Z,1.20
2023-04-09T03:53:14.972Z,1.10
2023-04-09T03:55:42.763Z,1.20
2023-04-09T03:58:11.112Z,1.20
2023-04-09T04:00:40.276Z,1.10
2023-04-09T04:03:08.218Z,1.10
2023-04-09T04:05:36.120Z,1.20
2023-04-09T04:08:03.897Z,1.20
2023-04-09T04:10:31.804Z,1.20
2023-04-09T04:12:59.597Z,1.10
2023-04-09T04:15:27.444Z,1.10
2023-04-09T04:17:56.746Z,1.20
2023-04-09T04:20:24.560Z,1.20
2023-04-09T04:22:52.351Z,1.20
2023-04-09T04:25:20.287Z,1.30
2023-04-09T04:27:48.116Z,1.30
2023-04-09T04:30:15.917Z,1.40
2023-04-09T04:32:43.729Z,1.40
2023-04-09T04:35:12.889Z,1.40
2023-04-09T04:37:41.394Z,1.40
2023-04-09T04:40:10.505Z,1.40
2023-04-09T04:42:38.312Z,1.50
2023-04-09T04:45:06.994Z,1.50
2023-04-09T04:47:34.822Z,1.60
2023-04-09T04:50:02.682Z,1.60
2023-04-09T04:52:31.888Z,1.60
2023-04-09T04:54:59.694Z,1.70
2023-04-09T04:57:27.504Z,1.70
2023-04-09T04:59:55.367Z,1.80
2023-04-09T05:02:23.343Z,1.90
2023-04-09T05:04:51.248Z,1.90
2023-04-09T05:07:19.058Z,1.90
2023-04-09T05:09:48.384Z,1.90
2023-04-09T05:12:17.918Z,2.00
2023-04-09T05:14:45.769Z,2.00
2023-04-09T05:17:13.564Z,2.00
2023-04-09T05:19:41.405Z,2.00
2023-04-09T05:22:09.190Z,2.00
2023-04-09T05:24:36.997Z,2.10
2023-04-09T05:27:06.499Z,2.20
2023-04-09T05:29:34.337Z,2.20
2023-04-09T05:32:02.165Z,2.30
2023-04-09T05:34:30.229Z,2.30
2023-04-09T05:36:58.090Z,2.30
2023-04-09T05:39:25.978Z,2.40
2023-04-09T05:41:53.955Z,2.30
2023-04-09T05:44:23.102Z,2.30
2023-04-09T05:46:50.946Z,2.20
2023-04-09T05:49:18.769Z,2.20
2023-04-09T05:51:46.587Z,2.20
2023-04-09T05:54:14.430Z,2.20
2023-04-09T05:56:44.161Z,2.30
2023-04-09T05:59:11.990Z,2.40
2023-04-09T06:01:41.163Z,2.60
2023-04-09T06:04:09.144Z,2.60
2023-04-09T06:06:38.808Z,2.80
2023-04-09T06:09:06.722Z,3.00
2023-04-09T06:11:34.880Z,3.30
2023-04-09T06:14:02.778Z,3.60
2023-04-09T06:16:30.604Z,3.90
2023-04-09T06:18:59.766Z,3.90
2023-04-09T06:21:27.934Z,3.90
2023-04-09T06:23:56.077Z,3.90
2023-04-09T06:26:23.873Z,4.00
2023-04-09T06:28:52.353Z,4.20
2023-04-09T06:31:20.502Z,4.40
2023-04-09T06:33:48.297Z,4.70
2023-04-09T06:36:17.505Z,4.90
2023-04-09T06:38:45.373Z,5.10
2023-04-09T06:41:14.785Z,5.40
2023-04-09T06:43:43.180Z,5.40
2023-04-09T06:46:11.420Z,4.80
2023-04-09T06:48:39.234Z,4.70
2023-04-09T06:51:08.420Z,4.80
2023-04-09T06:53:38.564Z,4.90
2023-04-09T06:56:07.164Z,4.30
2023-04-09T06:58:35.084Z,4.60
2023-04-09T07:01:03.015Z,5.20
2023-04-09T07:03:31.281Z,5.00
2023-04-09T07:05:59.358Z,5.50
2023-04-09T07:08:28.602Z,5.40
2023-04-09T07:10:57.745Z,5.40
2023-04-09T07:13:25.732Z,5.90
2023-04-09T07:15:53.542Z,5.60
2023-04-09T07:18:21.330Z,5.80
2023-04-09T07:20:49.126Z,6.60
2023-04-09T07:23:17.319Z,7.00
2023-04-09T07:25:45.129Z,7.40
2023-04-09T07:28:14.392Z,8.10
2023-04-09T07:30:42.185Z,8.00
2023-04-09T07:33:11.093Z,8.40
2023-04-09T07:35:39.117Z,8.00
2023-04-09T07:38:07.200Z,8.40
2023-04-09T07:40:36.653Z,8.70
2023-04-09T07:43:04.775Z,9.50
2023-04-09T07:45:33.993Z,9.50
2023-04-09T07:48:01.880Z,9.80
2023-04-09T07:50:30.056Z,9.00
2023-04-09T07:52:57.842Z,9.50
2023-04-09T07:55:25.963Z,10.10
2023-04-09T07:57:53.858Z,10.50
2023-04-09T08:00:21.838Z,10.50
2023-04-09T08:02:51.577Z,10.00
2023-04-09T08:05:19.680Z,9.10
2023-04-09T08:07:47.522Z,8.70
2023-04-09T08:10:16.408Z,8.50
2023-04-09T08:12:44.833Z,8.50
2023-04-09T08:15:12.841Z,8.40
2023-04-09T08:17:40.744Z,8.50
2023-04-09T08:20:11.314Z,8.40
2023-04-09T08:22:41.044Z,8.00
2023-04-09T08:25:09.545Z,8.40
2023-04-09T08:27:37.370Z,8.70
2023-04-09T08:30:05.856Z,9.00
2023-04-09T08:32:33.860Z,9.30
2023-04-09T08:35:02.114Z,9.60
2023-04-09T08:37:32.414Z,9.50
2023-04-09T08:40:00.368Z,9.20
2023-04-09T08:42:28.583Z,9.00
2023-04-09T08:44:56.945Z,9.30
2023-04-09T08:47:25.476Z,9.30
2023-04-09T08:49:53.373Z,9.00
2023-04-09T08:52:30.910Z,9.10
2023-04-09T08:55:00.252Z,9.40
2023-04-09T08:57:28.241Z,9.70
2023-04-09T08:59:56.420Z,9.10
2023-04-09T09:02:24.378Z,9.00
2023-04-09T09:04:55.053Z,9.00
2023-04-09T09:07:22.838Z,8.60
2023-04-09T09:09:54.760Z,8.70
2023-04-09T09:12:39.211Z,8.80
2023-04-09T09:15:25.298Z,8.80
2023-04-09T09:17:55.941Z,8.80
2023-04-09T09:20:24.430Z,9.50
2023-04-09T09:22:54.669Z,9.40
2023-04-09T09:25:24.812Z,9.30
2023-04-09T09:27:54.920Z,9.10
2023-04-09T09:30:24.492Z,8.80
2023-04-09T09:32:55.873Z,9.00
2023-04-09T09:35:23.754Z,9.20
2023-04-09T09:38:04.102Z,9.20
2023-04-09T09:40:34.929Z,8.80
2023-04-09T09:43:04.132Z,8.40
2023-04-09T09:45:33.534Z,8.30
2023-04-09T09:48:03.991Z,8.10
2023-04-09T09:50:32.716Z,8.40
2023-04-09T09:53:04.610Z,8.40
2023-04-09T09:55:37.974Z,8.40
2023-04-09T09:58:13.380Z,8.60
2023-04-09T10:00:43.168Z,8.90
2023-04-09T10:03:15.934Z,8.90
2023-04-09T10:05:44.607Z,9.10
2023-04-09T10:08:13.292Z,9.30
2023-04-09T10:10:43.363Z,8.90
2023-04-09T10:13:17.420Z,8.80
2023-04-09T10:15:45.980Z,8.50
2023-04-09T10:18:14.001Z,8.30
2023-04-09T10:20:46.167Z,8.30
2023-04-09T10:23:22.815Z,8.30
2023-04-09T10:25:50.725Z,8.30
2023-04-09T10:28:20.352Z,8.20
2023-04-09T10:30:48.290Z,8.10
2023-04-09T10:33:26.286Z,8.00
2023-04-09T10:35:54.839Z,8.10
2023-04-09T10:38:36.719Z,8.20
2023-04-09T10:41:16.587Z,8.10
2023-04-09T10:43:48.180Z,7.90
2023-04-09T10:46:29.902Z,8.10
2023-04-09T10:49:11.413Z,8.10
2023-04-09T10:51:40.279Z,8.30
2023-04-09T10:54:28.576Z,8.50
2023-04-09T10:57:15.037Z,8.50
2023-04-09T10:59:45.442Z,8.30
2023-04-09T11:02:47.477Z,8.20
2023-04-09T11:05:23.319Z,8.30
2023-04-09T11:07:56.167Z,8.30
2023-04-09T11:10:24.073Z,8.40
2023-04-09T11:12:53.766Z,8.50
2023-04-09T11:15:22.332Z,8.60
2023-04-09T11:17:50.858Z,8.70
2023-04-09T11:20:21.849Z,9.10
2023-04-09T11:22:50.871Z,9.60
2023-04-09T11:25:23.023Z,9.70
2023-04-09T11:27:53.901Z,9.90
2023-04-09T11:30:22.268Z,10.20
2023-04-09T11:32:51.046Z,10.20
2023-04-09T11:35:20.547Z,10.00
2023-04-09T11:37:49.993Z,10.00
2023-04-09T11:40:18.786Z,10.30
2023-04-09T11:42:48.685Z,10.40
2023-04-09T11:45:18.784Z,10.60
2023-04-09T11:47:47.586Z,10.60
2023-04-09T11:50:16.513Z,10.30
2023-04-09T11:52:46.149Z,10.40
2023-04-09T11:55:23.537Z,10.50
2023-04-09T11:57:53.166Z,10.10
2023-04-09T12:00:24.753Z,10.10
2023-04-09T12:03:00.484Z,10.20
2023-04-09T12:05:30.557Z,10.60
2023-04-09T12:08:00.891Z,10.60
2023-04-09T12:10:29.656Z,10.70
2023-04-09T12:13:03.417Z,10.60
2023-04-09T12:15:35.856Z,10.40
2023-04-09T12:18:04.445Z,10.20
2023-04-09T12:20:35.010Z,10.00
2023-04-09T12:23:04.642Z,10.30
2023-04-09T12:25:32.999Z,10.40
2023-04-09T12:28:01.470Z,10.50
2023-04-09T12:30:29.340Z,10.80
2023-04-09T12:32:59.055Z,10.70
2023-04-09T12:35:26.980Z,10.90
2023-04-09T12:37:54.858Z,11.20
2023-04-09T12:40:23.459Z,11.50
2023-04-09T12:42:51.760Z,11.50
2023-04-09T12:45:20.969Z,11.80
2023-04-09T12:47:49.148Z,11.50
2023-04-09T12:50:18.339Z,11.10
2023-04-09T12:52:46.467Z,11.10
2023-04-09T12:55:15.558Z,11.10
2023-04-09T12:57:45.063Z,10.80
2023-04-09T13:00:13.988Z,10.80
2023-04-09T13:02:42.272Z,10.40
2023-04-09T13:05:10.594Z,10.50
2023-04-09T13:07:40.872Z,10.50
2023-04-09T13:10:10.597Z,10.50
2023-04-09T13:12:38.403Z,11.00
2023-04-09T13:15:07.387Z,10.70
2023-04-09T13:17:35.259Z,10.80
2023-04-09T13:20:03.290Z,10.80
2023-04-09T13:22:31.220Z,10.30
2023-04-09T13:25:00.351Z,10.50
2023-04-09T13:27:28.164Z,11.10
2023-04-09T13:29:56.050Z,11.30
2023-04-09T13:32:24.401Z,11.50
2023-04-09T13:34:53.839Z,11.50
2023-04-09T13:37:21.896Z,11.90
2023-04-09T13:39:51.458Z,12.20
2023-04-09T13:42:20.764Z,12.50
2023-04-09T13:44:48.709Z,12.20
2023-04-09T13:47:18.381Z,12.40
2023-04-09T13:49:46.337Z,12.40
2023-04-09T13:52:14.299Z,12.40
2023-04-09T13:54:42.513Z,12.10
2023-04-09T13:57:11.080Z,12.00
2023-04-09T13:59:41.682Z,11.80
2023-04-09T14:02:10.314Z,11.80
2023-04-09T14:04:38.371Z,11.50
2023-04-09T14:07:06.257Z,11.50
2023-04-09T14:09:34.241Z,11.40
2023-04-09T14:12:02.591Z,11.60
2023-04-09T14:14:30.466Z,11.30
2023-04-09T14:16:59.681Z,10.70
2023-04-09T14:19:27.528Z,10.40
2023-04-09T14:21:56.040Z,10.20
2023-04-09T14:24:24.016Z,10.10
2023-04-09T14:26:53.485Z,10.20
2023-04-09T14:29:22.522Z,10.60
2023-04-09T14:31:50.636Z,11.00
2023-04-09T14:34:20.183Z,11.40
2023-04-09T14:36:48.144Z,11.60
2023-04-09T14:39:16.138Z,11.90
2023-04-09T14:41:44.178Z,12.30
2023-04-09T14:44:12.081Z,12.60
2023-04-09T14:46:40.139Z,13.10
2023-04-09T14:49:08.107Z,13.40
2023-04-09T14:51:37.324Z,13.50
2023-04-09T14:54:05.270Z,12.80
2023-04-09T14:56:33.186Z,12.30
2023-04-09T14:59:01.045Z,11.70
2023-04-09T15:01:29.430Z,11.60
2023-04-09T15:03:58.164Z,11.50
2023-04-09T15:06:26.326Z,11.30
2023-04-09T15:08:55.562Z,11.10
2023-04-09T15:11:23.598Z,11.20
2023-04-09T15:13:52.981Z,11.30
2023-04-09T15:16:24.602Z,11.40
2023-04-09T15:18:55.822Z,11.30
2023-04-09T15:21:24.381Z,11.40
2023-04-09T15:23:53.043Z,11.50
2023-04-09T15:26:22.199Z,11.50
2023-04-09T15:28:50.355Z,11.50
2023-04-09T15:31:18.288Z,11.80
2023-04-09T15:33:47.132Z,11.90
2023-04-09T15:36:15.143Z,11.80
2023-04-09T15:38:43.128Z,11.70
2023-04-09T15:41:11.182Z,11.60
2023-04-09T15:43:40.517Z,11.70
2023-04-09T15:46:10.623Z,11.60
2023-04-09T15:48:38.633Z,11.40
2023-04-09T15:51:07.155Z,11.20
2023-04-09T15:53:35.135Z,11.20
2023-04-09T15:56:03.622Z,11.10
2023-04-09T15:58:31.509Z,10.90
2023-04-09T16:01:01.458Z,10.80
2023-04-09T16:03:29.395Z,10.70
2023-04-09T16:05:57.185Z,10.70
2023-04-09T16:08:26.304Z,10.70
2023-04-09T16:10:55.130Z,10.70
2023-04-09T16:13:22.935Z,10.70
2023-04-09T16:15:51.070Z,10.70
2023-04-09T16:18:20.575Z,10.90
2023-04-09T16:20:48.441Z,11.10
2023-04-09T16:23:16.232Z,11.20
2023-04-09T16:25:44.013Z,11.10
2023-04-09T16:28:11.816Z,11.20
2023-04-09T16:30:39.614Z,11.00
2023-04-09T16:33:08.657Z,10.80
2023-04-09T16:35:39.648Z,10.70
2023-04-09T16:38:07.971Z,10.70
2023-04-09T16:40:36.446Z,10.70
2023-04-09T16:43:04.364Z,10.60
2023-04-09T16:45:32.708Z,10.60
2023-04-09T16:48:00.689Z,10.70
2023-04-09T16:50:28.713Z,10.60
2023-04-09T16:52:58.070Z,10.50
2023-04-09T16:55:26.054Z,10.40
2023-04-09T16:57:55.930Z,10.40
2023-04-09T17:00:23.954Z,10.30
2023-04-09T17:02:52.032Z,10.20
2023-04-09T17:05:20.297Z,10.20
2023-04-09T17:07:48.218Z,10.10
2023-04-09T17:10:19.036Z,10.10
2023-04-09T17:12:47.171Z,10.10
2023-04-09T17:15:15.045Z,10.00
2023-04-09T17:17:43.578Z,10.00
2023-04-09T17:20:12.543Z,10.00
2023-04-09T17:22:40.342Z,9.90
2023-04-09T17:25:09.407Z,9.90
2023-04-09T17:27:38.547Z,9.80
2023-04-09T17:30:07.609Z,9.80
2023-04-09T17:32:35.429Z,9.80
2023-04-09T17:35:03.720Z,9.70
2023-04-09T17:37:31.532Z,9.60
2023-04-09T17:39:59.315Z,9.50
2023-04-09T17:42:27.244Z,9.50
2023-04-09T17:44:56.429Z,9.40
2023-04-09T17:47:24.433Z,9.30
2023-04-09T17:49:53.606Z,9.30
2023-04-09T17:52:22.382Z,9.20
2023-04-09T17:54:52.226Z,9.20
2023-04-09T17:57:20.041Z,9.20
2023-04-09T17:59:48.886Z,9.10
2023-04-09T18:02:18.325Z,9.00
2023-04-09T18:04:46.528Z,8.80
2023-04-09T18:07:14.453Z,8.60
2023-04-09T18:09:42.256Z,8.60
2023-04-09T18:12:10.036Z,8.80
2023-04-09T18:14:37.912Z,8.90
2023-04-09T18:17:05.709Z,8.80
2023-04-09T18:19:34.870Z,8.70
2023-04-09T18:22:02.706Z,8.50
2023-04-09T18:24:30.536Z,8.20
2023-04-09T18:26:58.927Z,7.90
2023-04-09T18:29:27.504Z,7.50
2023-04-09T18:31:56.273Z,7.20
2023-04-09T18:34:24.235Z,6.90
2023-04-09T18:36:54.573Z,6.70
2023-04-09T18:39:22.897Z,6.40
2023-04-09T18:41:51.126Z,6.30
2023-04-09T18:44:18.996Z,6.20
2023-04-09T18:46:47.165Z,6.20
2023-04-09T18:49:15.049Z,6.00
2023-04-09T18:51:42.859Z,5.80
2023-04-09T18:54:12.059Z,5.70
2023-04-09T18:56:39.834Z,5.50
2023-04-09T18:59:07.627Z,5.40
2023-04-09T19:01:35.543Z,5.30
2023-04-09T19:04:03.591Z,5.20
2023-04-09T19:06:33.107Z,5.20
2023-04-09T19:09:01.152Z,5.10
2023-04-09T19:11:30.356Z,5.00
2023-04-09T19:13:58.187Z,5.00
2023-04-09T19:16:26.128Z,4.90
2023-04-09T19:18:54.380Z,4.80
2023-04-09T19:21:22.550Z,4.70
2023-04-09T19:23:50.398Z,4.70
2023-04-09T19:26:18.922Z,4.60
2023-04-09T19:28:48.062Z,4.50
2023-04-09T19:31:16.992Z,4.60
2023-04-09T19:33:44.939Z,4.90
2023-04-09T19:36:13.062Z,4.90
2023-04-09T19:38:41.093Z,5.00
2023-04-09T19:41:08.993Z,4.90
2023-04-09T19:43:39.112Z,4.80
2023-04-09T19:46:13.302Z,4.90
2023-04-09T19:48:41.580Z,4.70
2023-04-09T19:51:09.530Z,4.90
2023-04-09T19:53:37.799Z,5.20
2023-04-09T19:56:06.259Z,5.60
2023-04-09T19:58:34.055Z,5.60
2023-04-09T20:01:02.653Z,5.50
2023-04-09T20:03:32.890Z,5.80
2023-04-09T20:06:00.962Z,5.90
2023-04-09T20:08:28.786Z,5.40
2023-04-09T20:10:56.711Z,5.50
2023-04-09T20:13:25.344Z,5.30
2023-04-09T20:15:53.129Z,5.20
2023-04-09T20:18:20.956Z,4.90
2023-04-09T20:20:52.085Z,4.60
2023-04-09T20:23:19.952Z,4.40
2023-04-09T20:25:47.745Z,4.30
2023-04-09T20:28:15.592Z,4.30
2023-04-09T20:30:43.425Z,4.50
2023-04-09T20:33:11.609Z,4.70
2023-04-09T20:35:39.433Z,4.40
2023-04-09T20:38:08.561Z,4.10
2023-04-09T20:40:37.731Z,4.10
2023-04-09T20:43:05.811Z,3.80
2023-04-09T20:45:33.745Z,3.70
2023-04-09T20:48:02.186Z,3.80
2023-04-09T20:50:31.016Z,3.50
2023-04-09T20:52:59.648Z,3.80
2023-04-09T20:55:28.829Z,4.20
2023-04-09T20:57:56.662Z,4.70
2023-04-09T21:00:24.778Z,4.50
2023-04-09T21:02:52.813Z,4.10
2023-04-09T21:05:23.902Z,3.80
2023-04-09T21:07:52.468Z,3.90
2023-04-09T21:10:20.893Z,4.80
2023-04-09T21:12:50.148Z,4.80
2023-04-09T21:15:18.031Z,4.50
2023-04-09T21:17:45.931Z,4.60
2023-04-09T21:20:15.135Z,4.70
2023-04-09T21:22:43.147Z,4.70
2023-04-09T21:25:12.184Z,4.70
2023-04-09T21:27:41.648Z,4.60
2023-04-09T21:30:11.580Z,4.20
2023-04-09T21:32:39.477Z,4.10
2023-04-09T21:35:07.752Z,4.90
2023-04-09T21:37:37.497Z,4.90
2023-04-09T21:40:06.283Z,5.00
2023-04-09T21:42:34.095Z,5.20
2023-04-09T21:45:02.312Z,4.90
2023-04-09T21:47:31.933Z,4.50
2023-04-09T21:49:59.958Z,4.30
2023-04-09T21:52:28.147Z,4.10
2023-04-09T21:54:55.956Z,4.10
2023-04-09T21:57:23.822Z,4.50
2023-04-09T21:59:51.652Z,4.40
2023-04-09T22:02:19.857Z,4.10
2023-04-09T22:04:49.117Z,3.80
2023-04-09T22:07:17.066Z,3.40
2023-04-09T22:09:44.913Z,3.70
2023-04-09T22:12:12.723Z,3.70
2023-04-09T22:14:41.912Z,4.10
2023-04-09T22:17:09.874Z,4.00
2023-04-09T22:19:37.733Z,4.00
2023-04-09T22:22:06.864Z,4.10
2023-04-09T22:24:34.666Z,4.50
2023-04-09T22:27:02.563Z,4.80
2023-04-09T22:29:31.306Z,4.90
2023-04-09T22:31:59.100Z,4.60
2023-04-09T22:34:27.157Z,4.10
2023-04-09T22:36:55.009Z,3.80
2023-04-09T22:39:24.254Z,3.70
2023-04-09T22:41:52.080Z,4.00
2023-04-09T22:44:19.897Z,3.90
2023-04-09T22:46:47.772Z,3.70
2023-04-09T22:49:15.861Z,3.90
2023-04-09T22:51:43.828Z,4.20
2023-04-09T22:54:11.674Z,4.10
2023-04-09T22:56:40.850Z,4.70
2023-04-09T22:59:08.669Z,4.50
2023-04-09T23:01:36.765Z,4.70
2023-04-09T23:04:04.705Z,4.80
2023-04-09T23:06:32.556Z,4.80
2023-04-09T23:09:00.475Z,4.80
2023-04-09T23:11:28.289Z,4.70
2023-04-09T23:13:57.469Z,4.80
2023-04-09T23:16:26.290Z,4.60
2023-04-09T23:18:54.618Z,4.50
2023-04-09T23:21:22.609Z,4.60
2023-04-09T23:23:50.414Z,4.60
2023-04-09T23:26:18.210Z,4.50
2023-04-09T23:28:46.062Z,4.40
2023-04-09T23:31:16.053Z,4.40
2023-04-09T23:33:43.820Z,4.40
2023-04-09T23:36:11.673Z,4.30
2023-04-09T23:38:40.435Z,4.50
2023-04-09T23:41:08.305Z,4.20
2023-04-09T23:43:36.119Z,3.90
2023-04-09T23:46:04.023Z,3.90
2023-04-09T23:48:33.273Z,3.70
2023-04-09T23:51:01.058Z,4.10
2023-04-09T23:53:28.869Z,4.00
2023-04-09T23:55:56.673Z,3.90
2023-04-09T23:58:24.496Z,3.90
